createdAt,value
2023-12-13T00:02:53.361Z,100137.69
2023-12-13T00:05:57.642Z,100137.69
2023-12-13T00:09:00.474Z,100135.22
2023-12-13T00:12:03.819Z,100127.31
2023-12-13T00:15:08.327Z,100128.19
2023-12-13T00:18:11.188Z,100128.19
2023-12-13T00:21:16.687Z,100124.56
2023-12-13T00:24:19.674Z,100122.88
2023-12-13T00:27:22.533Z,100122.00
2023-12-13T00:30:25.684Z,100134.44
2023-12-13T00:33:28.589Z,100124.75
2023-12-13T00:36:32.761Z,100133.69
2023-12-13T00:39:35.594Z,100126.47
2023-12-13T00:42:38.387Z,100115.91
2023-12-13T00:45:41.165Z,100121.13
2023-12-13T00:48:44.093Z,100115.81
2023-12-13T00:51:48.306Z,100114.94
2023-12-13T00:54:51.084Z,100113.34
2023-12-13T00:57:53.966Z,100103.63
2023-12-13T01:00:56.771Z,100115.22
2023-12-13T01:03:59.612Z,100101.09
2023-12-13T01:07:03.864Z,100102.06
2023-12-13T01:10:07.695Z,100100.16
2023-12-13T01:13:10.513Z,100105.50
2023-12-13T01:16:13.385Z,100105.50
2023-12-13T01:19:16.311Z,100086.88
2023-12-13T01:22:20.785Z,100083.28
2023-12-13T01:25:23.685Z,100069.78
2023-12-13T01:28:26.557Z,100075.97
2023-12-13T01:31:29.385Z,100073.22
2023-12-13T01:34:32.422Z,100067.13
2023-12-13T01:37:36.977Z,100062.91
2023-12-13T01:40:40.004Z,100076.38
2023-12-13T01:43:43.213Z,100075.56
2023-12-13T01:46:48.758Z,100080.59
2023-12-13T01:49:51.669Z,100066.50
2023-12-13T01:52:57.035Z,100072.03
2023-12-13T01:55:59.986Z,100069.53
2023-12-13T01:59:04.087Z,100069.38
2023-12-13T02:02:07.450Z,100063.00
2023-12-13T02:05:12.099Z,100053.41
2023-12-13T02:08:16.254Z,100057.59
2023-12-13T02:11:19.064Z,100048.72
2023-12-13T02:14:22.078Z,100028.31
2023-12-13T02:17:24.915Z,100024.72
2023-12-13T02:20:27.789Z,100025.66
2023-12-13T02:23:31.962Z,100029.25
2023-12-13T02:26:42.508Z,100022.97
2023-12-13T02:29:48.794Z,100026.56
2023-12-13T02:32:51.890Z,100022.22
2023-12-13T02:35:55.408Z,100022.22
2023-12-13T02:38:59.573Z,100017.84
2023-12-13T02:42:02.394Z,100016.91
2023-12-13T02:45:05.972Z,100004.53
2023-12-13T02:48:08.996Z,100002.81
2023-12-13T02:51:12.070Z,100004.53
2023-12-13T02:54:16.204Z,99999.19
2023-12-13T02:57:19.017Z,99988.56
2023-12-13T03:00:22.428Z,99991.97
2023-12-13T03:03:25.599Z,99978.78
2023-12-13T03:06:28.449Z,99977.84
2023-12-13T03:09:32.616Z,99977.84
2023-12-13T03:12:35.400Z,99977.91
2023-12-13T03:15:38.233Z,99974.41
2023-12-13T03:18:41.244Z,99975.25
2023-12-13T03:21:44.094Z,99973.56
2023-12-13T03:24:48.296Z,99964.72
2023-12-13T03:27:52.397Z,99962.91
2023-12-13T03:30:55.203Z,99969.84
2023-12-13T03:33:58.056Z,99961.75
2023-12-13T03:37:00.963Z,99954.56
2023-12-13T03:40:05.827Z,99950.97
2023-12-13T03:43:08.657Z,99950.88
2023-12-13T03:46:11.602Z,99945.44
2023-12-13T03:49:14.527Z,99948.88
2023-12-13T03:52:17.405Z,99938.97
2023-12-13T03:55:21.585Z,99939.72
2023-12-13T03:58:24.388Z,99950.31
2023-12-13T04:01:27.236Z,99946.56
2023-12-13T04:04:30.186Z,99938.50
2023-12-13T04:07:33.233Z,99936.69
2023-12-13T04:10:37.647Z,99944.59
2023-12-13T04:13:40.513Z,99945.44
2023-12-13T04:16:44.906Z,99939.16
2023-12-13T04:19:47.893Z,99928.50
2023-12-13T04:22:51.524Z,99932.13
2023-12-13T04:25:55.753Z,99924.13
2023-12-13T04:28:58.544Z,99932.13
2023-12-13T04:32:01.335Z,99942.75
2023-12-13T04:35:04.282Z,99928.69
2023-12-13T04:38:07.156Z,99929.56
2023-12-13T04:41:11.304Z,99916.13
2023-12-13T04:44:14.126Z,99913.69
2023-12-13T04:47:16.946Z,99910.16
2023-12-13T04:50:19.873Z,99906.56
2023-12-13T04:53:22.694Z,99900.38
2023-12-13T04:56:26.852Z,99900.38
2023-12-13T04:59:29.659Z,99895.06
2023-12-13T05:02:32.646Z,99900.38
2023-12-13T05:05:35.466Z,99892.41
2023-12-13T05:08:38.332Z,99888.97
2023-12-13T05:11:43.104Z,99890.78
2023-12-13T05:14:45.863Z,99876.59
2023-12-13T05:17:48.723Z,99881.94
2023-12-13T05:20:52.000Z,99870.53
2023-12-13T05:23:54.835Z,99881.16
2023-12-13T05:26:58.999Z,99879.47
2023-12-13T05:30:01.856Z,99883.00
2023-12-13T05:33:05.244Z,99875.94
2023-12-13T05:36:09.381Z,99882.03
2023-12-13T05:39:12.199Z,99881.16
2023-12-13T05:42:16.390Z,99895.34
2023-12-13T05:45:19.286Z,99890.13
2023-12-13T05:48:22.705Z,99891.00
2023-12-13T05:51:25.524Z,99884.81
2023-12-13T05:54:28.395Z,99877.75
2023-12-13T05:57:32.790Z,99887.53
2023-12-13T06:00:36.510Z,99889.25
2023-12-13T06:03:41.549Z,99881.38
2023-12-13T06:06:47.884Z,99887.53
2023-12-13T06:09:50.942Z,99893.72
2023-12-13T06:12:55.130Z,99888.41
2023-12-13T06:15:57.915Z,99887.53
2023-12-13T06:19:00.801Z,99884.81
2023-12-13T06:22:04.072Z,99883.94
2023-12-13T06:25:08.648Z,99888.41
2023-12-13T06:28:12.804Z,99887.47
2023-12-13T06:31:15.657Z,99883.06
2023-12-13T06:34:18.559Z,99899.03
2023-12-13T06:37:21.502Z,99897.34
2023-12-13T06:40:25.886Z,99887.63
2023-12-13T06:43:30.201Z,99892.97
2023-12-13T06:46:33.046Z,99877.97
2023-12-13T06:49:36.087Z,99883.28
2023-12-13T06:52:39.394Z,99882.44
2023-12-13T06:55:42.524Z,99883.28
2023-12-13T06:58:47.006Z,99884.97
2023-12-13T07:01:49.917Z,99879.66
2023-12-13T07:04:52.836Z,99884.13
2023-12-13T07:07:56.236Z,99894.75
2023-12-13T07:10:59.173Z,99898.28
2023-12-13T07:14:03.385Z,99885.94
2023-12-13T07:17:06.288Z,99888.59
2023-12-13T07:20:11.556Z,99889.53
2023-12-13T07:23:14.430Z,99893.06
2023-12-13T07:26:17.892Z,99903.72
2023-12-13T07:29:22.074Z,99903.72
2023-12-13T07:32:24.997Z,99900.19
2023-12-13T07:35:28.074Z,99909.91
2023-12-13T07:38:31.045Z,99909.91
2023-12-13T07:41:33.884Z,99904.47
2023-12-13T07:44:38.057Z,99908.00
2023-12-13T07:47:40.859Z,99901.72
2023-12-13T07:50:44.297Z,99895.53
2023-12-13T07:53:47.232Z,99896.38
2023-12-13T07:56:51.981Z,99904.38
2023-12-13T07:59:56.170Z,99900.00
2023-12-13T08:02:59.043Z,99904.38
2023-12-13T08:06:03.508Z,99891.16
2023-12-13T08:09:10.318Z,99887.53
2023-12-13T08:12:13.132Z,99887.53
2023-12-13T08:15:17.415Z,99886.72
2023-12-13T08:18:20.302Z,99889.38
2023-12-13T08:21:24.942Z,99890.19
2023-12-13T08:24:27.735Z,99891.06
2023-12-13T08:27:30.632Z,99888.41
2023-12-13T08:30:35.128Z,99901.63
2023-12-13T08:33:38.025Z,99909.63
2023-12-13T08:36:40.800Z,99898.09
2023-12-13T08:39:43.815Z,99911.41
2023-12-13T08:42:46.666Z,99907.91
2023-12-13T08:45:51.416Z,99907.91
2023-12-13T08:48:54.714Z,99912.34
2023-12-13T08:51:58.232Z,99915.03
2023-12-13T08:55:01.037Z,99905.34
2023-12-13T08:58:04.039Z,99917.69
2023-12-13T09:01:08.317Z,99913.31
2023-12-13T09:04:11.513Z,99914.16
2023-12-13T09:07:14.388Z,99912.47
2023-12-13T09:10:17.224Z,99914.16
2023-12-13T09:13:20.105Z,99915.03
2023-12-13T09:16:24.342Z,99918.66
2023-12-13T09:19:27.340Z,99917.69
2023-12-13T09:22:31.350Z,99918.53
2023-12-13T09:25:34.214Z,99913.31
2023-12-13T09:28:37.198Z,99918.66
2023-12-13T09:31:41.820Z,99918.66
2023-12-13T09:34:44.637Z,99919.41
2023-12-13T09:37:47.681Z,99918.66
2023-12-13T09:40:50.630Z,99920.34
2023-12-13T09:43:55.110Z,99925.66
2023-12-13T09:47:03.152Z,99926.53
2023-12-13T09:50:07.625Z,99922.06
2023-12-13T09:53:12.638Z,99918.44
2023-12-13T09:56:15.529Z,99926.41
2023-12-13T09:59:18.317Z,99922.94
2023-12-13T10:02:22.433Z,99922.06
2023-12-13T10:05:26.071Z,99920.34
2023-12-13T10:08:28.876Z,99921.19
2023-12-13T10:11:32.125Z,99921.31
2023-12-13T10:14:36.975Z,99915.97
2023-12-13T10:17:42.861Z,99924.81
2023-12-13T10:20:47.145Z,99923.97
2023-12-13T10:23:50.209Z,99925.78
2023-12-13T10:26:53.175Z,99915.97
2023-12-13T10:29:55.989Z,99912.34
2023-12-13T10:33:01.385Z,99909.69
2023-12-13T10:36:06.741Z,99915.03
2023-12-13T10:39:12.437Z,99910.56
2023-12-13T10:42:18.107Z,99908.84
2023-12-13T10:45:24.700Z,99904.38
2023-12-13T10:48:34.323Z,99904.38
2023-12-13T10:51:38.896Z,99900.00
2023-12-13T10:54:42.527Z,99900.84
2023-12-13T10:57:45.318Z,99893.72
2023-12-13T11:00:50.595Z,99891.06
2023-12-13T11:04:02.098Z,99896.38
2023-12-13T11:07:10.084Z,99885.72
2023-12-13T11:10:14.546Z,99890.13
2023-12-13T11:13:24.289Z,99889.16
2023-12-13T11:16:28.189Z,99888.22
2023-12-13T11:19:32.761Z,99893.53
2023-12-13T11:22:36.073Z,99892.69
2023-12-13T11:25:40.111Z,99908.66
2023-12-13T11:28:49.983Z,99913.97
2023-12-13T11:31:54.529Z,99914.09
2023-12-13T11:34:58.746Z,99916.75
2023-12-13T11:38:03.233Z,99906.09
2023-12-13T11:41:06.252Z,99913.13
2023-12-13T11:44:09.097Z,99913.13
2023-12-13T11:47:13.259Z,99917.59
2023-12-13T11:50:20.537Z,99913.13
2023-12-13T11:53:23.454Z,99913.97
2023-12-13T11:56:26.246Z,99913.97
2023-12-13T11:59:29.090Z,99920.16
2023-12-13T12:02:32.068Z,99913.97
2023-12-13T12:05:36.336Z,99915.69
2023-12-13T12:08:39.154Z,99914.84
2023-12-13T12:11:41.958Z,99914.84
2023-12-13T12:14:48.823Z,99918.44
2023-12-13T12:17:52.085Z,99919.31
2023-12-13T12:20:57.240Z,99912.28
2023-12-13T12:24:00.672Z,99919.41
2023-12-13T12:27:10.644Z,99918.44
2023-12-13T12:30:14.671Z,99919.41
2023-12-13T12:33:18.100Z,99916.75
2023-12-13T12:36:22.904Z,99920.16
2023-12-13T12:39:25.967Z,99925.50
2023-12-13T12:42:28.808Z,99921.03
2023-12-13T12:45:31.583Z,99922.72
2023-12-13T12:48:35.392Z,99922.72
2023-12-13T12:51:39.645Z,99918.25
2023-12-13T12:54:43.262Z,99921.84
2023-12-13T12:57:46.988Z,99919.19
2023-12-13T13:00:49.795Z,99912.19
2023-12-13T13:03:53.031Z,99920.06
2023-12-13T13:06:57.280Z,99915.69
2023-12-13T13:10:00.095Z,99911.22
2023-12-13T13:13:03.414Z,99916.53
2023-12-13T13:16:06.889Z,99921.84
2023-12-13T13:19:09.694Z,99926.25
2023-12-13T13:22:19.764Z,99930.59
2023-12-13T13:25:27.660Z,99930.59
2023-12-13T13:28:30.527Z,99937.75
2023-12-13T13:31:33.416Z,99949.25
2023-12-13T13:34:36.252Z,99944.00
2023-12-13T13:37:40.429Z,99947.53
2023-12-13T13:40:43.519Z,99942.22
2023-12-13T13:43:46.447Z,99948.47
2023-12-13T13:46:52.110Z,99953.81
2023-12-13T13:49:55.044Z,99953.81
2023-12-13T13:53:01.173Z,99953.81
2023-12-13T13:56:04.411Z,99952.09
2023-12-13T13:59:07.333Z,99955.63
2023-12-13T14:02:10.391Z,99953.81
2023-12-13T14:05:13.940Z,99950.22
2023-12-13T14:08:18.334Z,99959.13
2023-12-13T14:11:21.200Z,99960.84
2023-12-13T14:14:24.019Z,99971.50
2023-12-13T14:17:26.887Z,99973.31
2023-12-13T14:20:29.663Z,99976.81
2023-12-13T14:23:34.483Z,99967.97
2023-12-13T14:26:37.341Z,99974.16
2023-12-13T14:29:40.115Z,99981.28
2023-12-13T14:32:44.238Z,99983.00
2023-12-13T14:35:47.482Z,99983.84
2023-12-13T14:38:51.624Z,99986.44
2023-12-13T14:41:54.642Z,99987.28
2023-12-13T14:44:57.462Z,99988.13
2023-12-13T14:48:00.485Z,99990.69
2023-12-13T14:51:03.656Z,99995.06
2023-12-13T14:54:07.956Z,99992.41
2023-12-13T14:57:10.818Z,99987.97
2023-12-13T15:00:14.506Z,99995.94
2023-12-13T15:03:18.133Z,99997.63
2023-12-13T15:06:21.344Z,99994.16
2023-12-13T15:09:27.032Z,99998.59
2023-12-13T15:12:29.902Z,100006.50
2023-12-13T15:15:32.713Z,100009.16
2023-12-13T15:18:35.647Z,100010.88
2023-12-13T15:21:38.597Z,100010.00
2023-12-13T15:24:43.813Z,100018.88
2023-12-13T15:27:46.815Z,100020.56
2023-12-13T15:30:49.909Z,100032.94
2023-12-13T15:33:52.896Z,100025.03
2023-12-13T15:36:55.814Z,100032.94
2023-12-13T15:39:59.944Z,100026.75
2023-12-13T15:43:02.715Z,100036.53
2023-12-13T15:46:06.562Z,100035.69
2023-12-13T15:49:09.448Z,100033.13
2023-12-13T15:52:12.264Z,100034.84
2023-12-13T15:55:17.575Z,100045.50
2023-12-13T15:58:20.858Z,100038.44
2023-12-13T16:01:24.192Z,100049.09
2023-12-13T16:04:27.102Z,100047.28
2023-12-13T16:07:29.932Z,100051.75
2023-12-13T16:10:34.220Z,100050.81
2023-12-13T16:13:37.409Z,100054.31
2023-12-13T16:16:40.245Z,100056.16
2023-12-13T16:19:43.104Z,100059.75
2023-12-13T16:22:45.999Z,100064.13
2023-12-13T16:25:50.991Z,100056.22
2023-12-13T16:28:54.128Z,100065.06
2023-12-13T16:31:57.264Z,100072.19
2023-12-13T16:35:00.843Z,100073.06
2023-12-13T16:38:04.554Z,100074.03
2023-12-13T16:41:08.906Z,100080.19
2023-12-13T16:44:12.050Z,100075.72
2023-12-13T16:47:15.156Z,100093.44
2023-12-13T16:50:18.124Z,100090.75
2023-12-13T16:53:21.145Z,100100.44
2023-12-13T16:56:25.625Z,100096.84
2023-12-13T16:59:28.480Z,100097.69
2023-12-13T17:02:43.240Z,100101.22
2023-12-13T17:05:48.323Z,100102.19
2023-12-13T17:08:51.154Z,100107.50
2023-12-13T17:11:55.451Z,100111.97
2023-12-13T17:15:03.321Z,100105.78
2023-12-13T17:18:07.147Z,100111.97
2023-12-13T17:21:09.994Z,100120.81
2023-12-13T17:24:12.889Z,100116.31
2023-12-13T17:27:17.453Z,100118.91
2023-12-13T17:30:20.350Z,100122.50
2023-12-13T17:33:23.635Z,100126.03
2023-12-13T17:36:26.552Z,100126.91
2023-12-13T17:39:29.352Z,100122.50
2023-12-13T17:42:33.643Z,100126.91
2023-12-13T17:45:36.912Z,100134.91
2023-12-13T17:48:39.725Z,100127.84
2023-12-13T17:51:42.556Z,100134.97
2023-12-13T17:54:46.223Z,100140.28
2023-12-13T17:57:50.416Z,100149.13
2023-12-13T18:00:54.922Z,100153.59
2023-12-13T18:07:35.456Z,100156.25
2023-12-13T18:10:38.383Z,100160.66
2023-12-13T18:13:44.339Z,100161.59
2023-12-13T18:16:47.480Z,100173.09
2023-12-13T18:19:50.393Z,100172.25
2023-12-13T18:22:55.060Z,100174.06
2023-12-13T18:25:58.172Z,100174.91
2023-12-13T18:29:03.972Z,100182.91
2023-12-13T18:32:09.114Z,100183.84
2023-12-13T18:35:12.077Z,100194.50
2023-12-13T18:38:15.847Z,100187.47
2023-12-13T18:41:18.705Z,100192.72
2023-12-13T18:44:23.416Z,100187.38
2023-12-13T18:47:26.330Z,100195.38
2023-12-13T18:50:29.139Z,100196.22
2023-12-13T18:53:34.531Z,100194.63
2023-12-13T18:56:38.122Z,100206.19
2023-12-13T18:59:42.253Z,100201.91
2023-12-13T19:02:45.056Z,100212.66
2023-12-13T19:05:47.879Z,100214.34
2023-12-13T19:08:50.684Z,100221.50
2023-12-13T19:11:53.491Z,100226.84
2023-12-13T19:14:57.667Z,100227.59
2023-12-13T19:18:00.654Z,100231.97
2023-12-13T19:21:04.015Z,100234.56
2023-12-13T19:24:07.508Z,100238.75
2023-12-13T19:27:10.277Z,100235.13
2023-12-13T19:30:16.438Z,100237.72
2023-12-13T19:33:19.294Z,100250.94
2023-12-13T19:36:22.393Z,100251.81
2023-12-13T19:39:25.460Z,100252.63
2023-12-13T19:42:28.315Z,100267.78
2023-12-13T19:45:32.433Z,100274.91
2023-12-13T19:48:35.389Z,100272.25
2023-12-13T19:51:38.225Z,100269.59
2023-12-13T19:54:41.028Z,100278.44
2023-12-13T19:57:43.834Z,100291.66
2023-12-13T20:00:48.125Z,100294.22
2023-12-13T20:03:50.976Z,100293.34
2023-12-13T20:06:53.817Z,100297.75
2023-12-13T20:09:56.622Z,100299.53
2023-12-13T20:12:59.494Z,100304.00
2023-12-13T20:16:03.729Z,100309.34
2023-12-13T20:19:07.006Z,100316.56
2023-12-13T20:22:09.906Z,100316.56
2023-12-13T20:25:12.720Z,100319.31
2023-12-13T20:28:15.666Z,100321.13
2023-12-13T20:31:19.901Z,100321.13
2023-12-13T20:34:22.732Z,100321.13
2023-12-13T20:37:26.075Z,100329.09
2023-12-13T20:40:28.915Z,100321.13
2023-12-13T20:43:32.041Z,100327.31
2023-12-13T20:46:36.211Z,100337.97
2023-12-13T20:49:39.209Z,100337.09
2023-12-13T20:52:42.178Z,100343.28
2023-12-13T20:55:44.990Z,100359.34
2023-12-13T20:58:47.884Z,100359.34
2023-12-13T21:01:52.072Z,100363.81
2023-12-13T21:04:54.902Z,100368.28
2023-12-13T21:07:57.766Z,100367.41
2023-12-13T21:11:00.635Z,100377.22
2023-12-13T21:14:05.406Z,100381.69
2023-12-13T21:17:09.782Z,100392.25
2023-12-13T21:20:13.025Z,100399.38
2023-12-13T21:23:16.737Z,100394.91
2023-12-13T21:26:19.987Z,100386.88
2023-12-13T21:29:25.081Z,100401.97
2023-12-13T21:32:29.381Z,100400.19
2023-12-13T21:35:32.289Z,100396.66
2023-12-13T21:38:35.092Z,100399.31
2023-12-13T21:41:37.927Z,100409.97
2023-12-13T21:44:40.767Z,100414.41
2023-12-13T21:47:46.411Z,100422.41
2023-12-13T21:50:49.519Z,100421.53
2023-12-13T21:53:52.390Z,100418.00
2023-12-13T21:56:55.231Z,100432.13
2023-12-13T21:59:58.082Z,100431.28
2023-12-13T22:03:02.264Z,100433.84
2023-12-13T22:06:06.075Z,100443.56
2023-12-13T22:09:09.173Z,100448.03
2023-12-13T22:12:11.932Z,100454.22
2023-12-13T22:15:14.902Z,100447.16
2023-12-13T22:18:23.629Z,100461.44
2023-12-13T22:21:26.773Z,100456.09
2023-12-13T22:24:29.718Z,100465.03
2023-12-13T22:27:32.726Z,100469.47
2023-12-13T22:30:35.707Z,100475.78
2023-12-13T22:33:40.026Z,100477.56
2023-12-13T22:36:42.851Z,100480.31
2023-12-13T22:39:45.711Z,100482.88
2023-12-13T22:42:48.572Z,100487.25
2023-12-13T22:45:51.400Z,100481.94
2023-12-13T22:48:55.558Z,100485.66
2023-12-13T22:52:19.344Z,100481.44
2023-12-13T22:55:21.123Z,100479.69
2023-12-13T22:58:24.066Z,100489.47
2023-12-13T23:01:26.927Z,100492.09
2023-12-13T23:04:31.335Z,100493.88
2023-12-13T23:07:34.352Z,100493.00
2023-12-13T23:10:37.208Z,100490.25
2023-12-13T23:13:40.019Z,100496.44
2023-12-13T23:16:42.891Z,100497.31
2023-12-13T23:19:47.087Z,100506.19
2023-12-13T23:22:49.936Z,100506.97
2023-12-13T23:25:52.808Z,100513.97
2023-12-13T23:28:55.645Z,100518.44
2023-12-13T23:31:58.436Z,100521.97
2023-12-13T23:35:02.657Z,100524.63
2023-12-13T23:38:05.566Z,100533.59
2023-12-13T23:41:08.479Z,100528.25
2023-12-13T23:44:11.352Z,100533.75
2023-12-13T23:47:14.233Z,100533.88
2023-12-13T23:50:18.483Z,100534.84
2023-12-13T23:53:21.903Z,100542.94
2023-12-13T23:56:25.630Z,100540.25
2023-12-13T23:59:28.463Z,100547.38
